Time;durP1;ratioP1;P1;durP2;ratioP2;P2;SDS_P1;SDS_P2;PMS_P1;PMS_P2;Temp;Humidity;BMP_temperature;BMP_pressure;BME280_temperature;BME280_humidity;BME280_pressure;Samples;Min_cycle;Max_cycle;Signal;HPM_P1;HPM_P2
2021/11/19 00:01:00;;;;;;;19.67;7.47;;;;;;;7.40;86.84;101848.28;5029447;28;20047;-55
2021/11/19 00:03:28;;;;;;;20.70;8.00;;;;;;;7.40;86.66;101843.00;5028269;28;20049;-53
2021/11/19 00:05:55;;;;;;;21.30;7.88;;;;;;;7.36;86.89;101841.31;5032151;28;20506;-51
2021/11/19 00:08:27;;;;;;;16.80;7.43;;;;;;;7.32;86.82;101834.31;5034825;28;20052;-52
2021/11/19 00:11:00;;;;;;;19.75;8.32;;;;;;;7.28;87.28;101841.38;5041680;28;20044;-53
2021/11/19 00:13:28;;;;;;;19.95;7.85;;;;;;;7.27;86.83;101847.53;5020513;28;20045;-51
2021/11/19 00:15:57;;;;;;;15.88;7.72;;;;;;;7.27;87.02;101846.66;5037678;28;20044;-53
2021/11/19 00:18:23;;;;;;;18.23;8.00;;;;;;;7.24;86.76;101844.94;5031564;28;20037;-51
2021/11/19 00:20:50;;;;;;;18.17;7.35;;;;;;;7.25;86.99;101851.94;5032659;28;20530;-51
2021/11/19 00:23:18;;;;;;;19.38;7.47;;;;;;;7.26;86.94;101848.44;5026460;28;20060;-54
2021/11/19 00:25:45;;;;;;;15.00;7.57;;;;;;;7.25;87.24;101845.81;5038814;28;20135;-54
2021/11/19 00:28:13;;;;;;;19.33;7.03;;;;;;;7.35;86.74;101847.47;5028021;28;20037;-55
2021/11/19 00:30:41;;;;;;;16.15;7.50;;;;;;;7.30;86.49;101842.25;5035864;28;20041;-53
2021/11/19 00:33:08;;;;;;;18.83;7.90;;;;;;;7.30;86.76;101844.00;5024978;28;20057;-53
2021/11/19 00:35:37;;;;;;;18.17;7.32;;;;;;;7.27;86.82;101847.53;5036401;28;20049;-53
2021/11/19 00:38:05;;;;;;;21.35;7.55;;;;;;;7.17;86.28;101830.09;5028366;28;20121;-54
2021/11/19 00:40:36;;;;;;;20.58;8.23;;;;;;;7.24;86.62;101847.56;5039582;28;20043;-51
2021/11/19 00:43:04;;;;;;;20.52;8.30;;;;;;;7.22;86.88;101846.75;5028664;28;20050;-54
2021/11/19 00:45:32;;;;;;;18.60;7.38;;;;;;;7.22;86.61;101856.41;5037150;28;20071;-54
2021/11/19 00:47:59;;;;;;;19.35;7.05;;;;;;;7.17;86.81;101851.16;5036845;28;20051;-53
2021/11/19 00:50:30;;;;;;;16.92;7.57;;;;;;;7.14;86.70;101847.69;5030433;28;20371;-52
2021/11/19 00:52:58;;;;;;;14.50;8.05;;;;;;;7.14;87.22;101851.19;5023587;28;20505;-54
2021/11/19 00:55:25;;;;;;;13.90;6.60;;;;;;;7.13;87.15;101838.91;5031504;28;20041;-54
2021/11/19 00:57:51;;;;;;;17.63;7.85;;;;;;;7.13;87.35;101844.19;5026690;28;20613;-53
2021/11/19 01:00:33;;;;;;;17.80;7.90;;;;;;;7.14;87.36;101850.31;5031283;28;20047;-53
2021/11/19 01:03:00;;;;;;;21.67;7.85;;;;;;;7.11;87.55;101845.06;5021781;28;20072;-55
2021/11/19 01:05:26;;;;;;;19.85;7.10;;;;;;;7.10;87.83;101843.31;5023898;28;20045;-54
2021/11/19 01:07:53;;;;;;;17.35;7.57;;;;;;;7.12;88.14;101842.44;5027144;28;20143;-52
2021/11/19 01:10:23;;;;;;;22.25;8.43;;;;;;;7.13;87.85;101843.31;5025962;28;20049;-53
2021/11/19 01:12:50;;;;;;;20.25;7.28;;;;;;;7.15;87.75;101844.16;5029823;28;20415;-53
2021/11/19 01:15:16;;;;;;;16.75;8.15;;;;;;;7.13;88.19;101846.81;5028569;28;20051;-54
2021/11/19 01:18:09;;;;;;;15.45;7.55;;;;;;;7.18;88.03;101846.78;5027972;28;20033;-53
2021/11/19 01:20:43;;;;;;;26.30;8.93;;;;;;;7.11;88.51;101843.31;5024749;28;20152;-51
2021/11/19 01:23:11;;;;;;;19.92;7.97;;;;;;;7.12;88.78;101852.97;5005443;28;20053;-53
2021/11/19 01:25:42;;;;;;;15.93;8.15;;;;;;;7.14;88.26;101859.09;5029600;28;20052;-54
2021/11/19 01:28:10;;;;;;;24.02;8.60;;;;;;;7.17;88.49;101856.44;5033258;28;20055;-52
2021/11/19 01:30:45;;;;;;;19.70;8.75;;;;;;;7.12;88.81;101860.00;5034477;28;20067;-53
2021/11/19 01:33:11;;;;;;;22.73;8.55;;;;;;;6.99;89.20;101840.81;5026691;28;20049;-54
2021/11/19 01:35:39;;;;;;;17.67;8.55;;;;;;;7.08;89.26;101863.56;5036474;28;20055;-53
2021/11/19 01:38:07;;;;;;;23.80;9.95;;;;;;;7.07;89.45;101852.16;5041094;28;20045;-55
2021/11/19 01:40:37;;;;;;;22.52;8.85;;;;;;;7.10;89.88;101853.84;5032111;28;20037;-53
2021/11/19 01:43:07;;;;;;;28.83;8.80;;;;;;;7.14;89.39;101855.59;5027107;28;20516;-55
2021/11/19 01:45:46;;;;;;;21.52;8.88;;;;;;;7.08;89.52;101863.56;5030852;28;20128;-53
2021/11/19 01:48:19;;;;;;;21.95;8.48;;;;;;;7.06;89.96;101862.69;5033230;28;20609;-53
2021/11/19 01:50:54;;;;;;;18.85;8.68;;;;;;;6.99;90.37;101872.41;5028972;28;20049;-52
2021/11/19 01:53:46;;;;;;;21.95;8.45;;;;;;;6.99;90.86;101865.38;5026961;28;20057;-54
2021/11/19 01:56:20;;;;;;;23.65;10.05;;;;;;;6.90;90.67;101856.69;5031319;28;20136;-53
2021/11/19 01:58:54;;;;;;;20.40;7.90;;;;;;;7.04;90.67;101865.34;5037203;28;20624;-54
2021/11/19 02:01:23;;;;;;;20.25;8.65;;;;;;;7.04;90.72;101866.22;5030978;28;20045;-53
2021/11/19 02:03:54;;;;;;;21.73;8.40;;;;;;;7.07;90.71;101865.31;5027455;28;20048;-54
2021/11/19 02:06:28;;;;;;;25.05;8.70;;;;;;;7.11;90.90;101869.66;5034423;28;20040;-53
2021/11/19 02:08:55;;;;;;;18.40;8.75;;;;;;;7.08;90.38;101864.44;5037926;28;20051;-54
2021/11/19 02:11:48;;;;;;;25.38;9.07;;;;;;;7.05;89.86;101869.72;5035054;28;20054;-52
2021/11/19 02:14:54;;;;;;;19.15;8.80;;;;;;;7.03;89.97;101864.47;5032420;28;20045;-53
2021/11/19 02:17:20;;;;;;;19.85;9.15;;;;;;;7.06;89.72;101860.06;5030240;28;20040;-53
2021/11/19 02:19:52;;;;;;;20.88;9.50;;;;;;;7.06;89.92;101863.56;5035706;28;20044;-55
2021/11/19 02:22:23;;;;;;;26.02;10.23;;;;;;;7.00;89.42;101858.34;5034164;28;20073;-56
2021/11/19 02:24:55;;;;;;;;;;;;;;;7.01;89.52;101865.38;5035476;28;20045;-53
2021/11/19 02:27:24;;;;;;;24.02;9.98;;;;;;;6.98;89.49;101860.13;5036928;28;19925;-54
2021/11/19 02:29:56;;;;;;;23.80;10.55;;;;;;;6.95;89.11;101863.66;5032415;28;20471;-51
2021/11/19 02:32:37;;;;;;;20.13;10.52;;;;;;;6.90;89.89;101852.31;5028373;28;20052;-51
2021/11/19 02:35:07;;;;;;;23.77;10.75;;;;;;;6.78;90.02;101838.34;5032585;28;20052;-53
2021/11/19 02:37:50;;;;;;;26.50;11.07;;;;;;;6.81;90.11;101851.50;5037059;28;20083;-53
2021/11/19 02:40:25;;;;;;;25.75;11.30;;;;;;;6.85;90.22;101847.94;5042691;28;20055;-54
2021/11/19 02:42:57;;;;;;;23.73;11.50;;;;;;;6.86;90.13;101854.97;5040178;28;20071;-52
2021/11/19 02:45:39;;;;;;;26.02;11.20;;;;;;;6.86;90.00;101855.84;5024270;28;20059;-52
2021/11/19 02:48:07;;;;;;;23.98;12.07;;;;;;;6.80;89.91;101862.91;5034516;28;20047;-53
2021/11/19 02:50:34;;;;;;;30.38;12.00;;;;;;;6.72;90.50;101860.34;5033319;28;20117;-53
2021/11/19 02:53:01;;;;;;;25.70;12.10;;;;;;;6.66;90.83;101858.63;5028070;28;20052;-53
2021/11/19 02:55:38;;;;;;;26.88;12.57;;;;;;;6.63;91.31;101858.66;5031175;28;20238;-52
2021/11/19 02:58:08;;;;;;;22.67;12.43;;;;;;;6.66;91.11;101858.63;5032611;28;20037;-52
2021/11/19 03:01:04;;;;;;;29.52;13.20;;;;;;;6.68;91.39;101864.75;5035970;28;20041;-52
2021/11/19 03:03:32;;;;;;;28.65;14.57;;;;;;;6.65;92.04;101859.50;5014040;28;20056;-52
2021/11/19 03:05:59;;;;;;;32.33;13.80;;;;;;;6.67;91.35;101860.38;5039708;28;20408;-53
2021/11/19 03:08:25;;;;;;;27.50;13.38;;;;;;;6.53;91.92;101849.09;5031095;28;20091;-53
2021/11/19 03:10:56;;;;;;;26.38;13.60;;;;;;;6.67;91.48;101865.66;5033511;28;20044;-54
2021/11/19 03:13:25;;;;;;;31.60;13.63;;;;;;;6.67;91.58;101872.66;5026696;28;20041;-52
2021/11/19 03:15:52;;;;;;;29.50;13.93;;;;;;;6.63;91.83;101860.41;5037174;28;20045;-53
2021/11/19 03:18:22;;;;;;;32.10;14.23;;;;;;;6.63;92.12;101860.41;5033274;28;20049;-52
2021/11/19 03:20:51;;;;;;;29.10;14.40;;;;;;;6.61;92.48;101856.94;5040978;28;20045;-53
2021/11/19 03:23:20;;;;;;;26.20;13.88;;;;;;;6.63;92.45;101853.38;5030075;28;20514;-51
2021/11/19 03:25:47;;;;;;;36.40;14.65;;;;;;;6.63;92.44;101849.88;5027331;28;20049;-53
2021/11/19 03:28:16;;;;;;;27.50;13.82;;;;;;;6.67;92.41;101852.47;5029062;28;20073;-52
2021/11/19 03:30:45;;;;;;;27.63;13.43;;;;;;;6.75;91.88;101847.16;5039952;28;20498;-53
2021/11/19 03:33:17;;;;;;;30.67;14.25;;;;;;;6.75;92.16;101856.81;5031658;28;20471;-53
2021/11/19 03:35:45;;;;;;;30.38;14.20;;;;;;;6.76;92.32;101848.03;5033737;28;20041;-55
2021/11/19 03:38:12;;;;;;;29.38;14.57;;;;;;;6.72;92.36;101849.81;5032319;28;20048;-52
2021/11/19 03:40:40;;;;;;;30.73;15.32;;;;;;;6.69;92.72;101857.75;5039964;28;20059;-53
2021/11/19 03:43:18;;;;;;;33.63;14.88;;;;;;;6.67;93.14;101863.00;5034414;28;20059;-54
2021/11/19 03:45:49;;;;;;;30.45;14.52;;;;;;;6.69;92.84;101857.75;5037111;28;20055;-52
2021/11/19 03:48:17;;;;;;;31.00;14.80;;;;;;;6.69;92.83;101858.63;5033709;28;20096;-53
2021/11/19 03:50:49;;;;;;;32.40;15.65;;;;;;;6.74;93.05;101860.34;5030423;28;20049;-51
2021/11/19 03:53:17;;;;;;;33.53;15.68;;;;;;;6.76;92.89;101869.97;5027628;28;20073;-51
2021/11/19 03:55:49;;;;;;;33.10;15.82;;;;;;;6.78;92.61;101872.56;5035640;28;20045;-53
2021/11/19 03:58:19;;;;;;;33.08;15.38;;;;;;;6.78;93.00;101868.19;5027946;28;20821;-53
2021/11/19 04:00:50;;;;;;;29.90;15.98;;;;;;;6.73;92.96;101874.38;5035651;28;20037;-52
2021/11/19 04:03:17;;;;;;;31.15;15.60;;;;;;;6.73;93.46;101866.50;5030492;28;20045;-54
2021/11/19 04:05:45;;;;;;;35.65;17.23;;;;;;;6.74;93.83;101873.50;5034370;28;20052;-51
2021/11/19 04:08:12;;;;;;;34.83;16.48;;;;;;;6.72;93.73;101868.25;5038018;28;20414;-54
2021/11/19 04:10:39;;;;;;;34.83;15.73;;;;;;;6.67;94.11;101876.16;5033395;28;20045;-51
2021/11/19 04:13:07;;;;;;;36.05;16.75;;;;;;;6.62;94.96;101884.97;5030631;28;20418;-53
2021/11/19 04:15:37;;;;;;;33.58;18.13;;;;;;;6.64;95.45;101880.56;5033523;28;20048;-54
2021/11/19 04:18:04;;;;;;;36.47;16.90;;;;;;;6.61;95.98;101876.19;5038017;28;20084;-51
2021/11/19 04:20:31;;;;;;;37.53;18.05;;;;;;;6.58;96.47;101871.00;5032373;28;20041;-53
2021/11/19 04:22:58;;;;;;;32.75;16.85;;;;;;;6.50;97.32;101872.78;5030683;28;20057;-56
2021/11/19 04:25:25;;;;;;;33.05;17.10;;;;;;;6.47;98.46;101880.69;5031631;28;20056;-51
2021/11/19 04:27:52;;;;;;;38.65;17.92;;;;;;;6.49;99.17;101870.16;5030044;28;20054;-52
2021/11/19 04:30:26;;;;;;;39.03;17.98;;;;;;;6.48;99.40;101879.81;5019395;28;20430;-52
2021/11/19 04:32:54;;;;;;;37.45;18.10;;;;;;;6.41;99.32;101878.13;5032590;28;20041;-52
2021/11/19 04:35:21;;;;;;;39.28;18.35;;;;;;;6.40;100.00;101863.22;5025714;28;20954;-51
2021/11/19 04:37:48;;;;;;;39.72;18.83;;;;;;;6.39;100.00;101861.47;5008566;28;20045;-53
2021/11/19 04:40:16;;;;;;;41.03;18.00;;;;;;;6.30;100.00;101843.97;5035310;28;20059;-53
2021/11/19 04:42:42;;;;;;;37.28;18.33;;;;;;;6.30;100.00;101843.09;5027168;28;20053;-53
2021/11/19 04:45:13;;;;;;;33.30;18.85;;;;;;;6.35;100.00;101862.34;5021684;28;20049;-52
2021/11/19 04:47:39;;;;;;;39.63;18.30;;;;;;;6.38;100.00;101872.88;5031590;28;20045;-52
2021/11/19 04:50:08;;;;;;;43.90;19.00;;;;;;;6.39;100.00;101873.75;5033450;28;20049;-52
2021/11/19 04:52:34;;;;;;;41.10;18.67;;;;;;;6.37;100.00;101878.13;5013231;28;20125;-53
2021/11/19 04:55:02;;;;;;;37.72;19.42;;;;;;;6.41;100.00;101878.13;5007868;28;20116;-53
2021/11/19 04:57:29;;;;;;;39.88;19.70;;;;;;;6.34;100.00;101872.00;5011348;28;20045;-52
2021/11/19 04:59:55;;;;;;;39.38;19.38;;;;;;;6.33;100.00;101869.38;5017571;28;20522;-53
2021/11/19 05:02:23;;;;;;;39.17;20.10;;;;;;;6.38;100.00;101864.97;5013112;28;20514;-51
2021/11/19 05:04:51;;;;;;;40.47;18.92;;;;;;;6.40;100.00;101864.97;5008183;28;20049;-52
2021/11/19 05:07:18;;;;;;;38.92;19.27;;;;;;;6.37;100.00;101870.25;5015764;28;20061;-52
2021/11/19 05:09:44;;;;;;;46.03;20.73;;;;;;;6.31;100.00;101855.34;5016917;28;20439;-52
2021/11/19 05:12:16;;;;;;;42.38;20.08;;;;;;;6.39;100.00;101872.00;5014899;28;20054;-53
2021/11/19 05:14:43;;;;;;;43.60;19.92;;;;;;;6.35;100.00;101872.88;5011840;28;20056;-53
2021/11/19 05:17:11;;;;;;;45.10;21.27;;;;;;;6.36;100.00;101868.50;5017639;28;20053;-53
2021/11/19 05:19:37;;;;;;;43.53;20.38;;;;;;;6.36;100.00;101858.84;5016089;28;20054;-54
2021/11/19 05:22:05;;;;;;;45.00;20.42;;;;;;;6.37;100.00;101850.06;5018554;28;20418;-53
2021/11/19 05:24:32;;;;;;;42.38;20.75;;;;;;;6.42;100.00;101848.28;5012002;28;20136;-53
2021/11/19 05:26:59;;;;;;;44.15;19.67;;;;;;;6.47;100.00;101850.88;5014761;28;20045;-52
2021/11/19 05:29:25;;;;;;;38.60;19.58;;;;;;;6.46;100.00;101839.47;5011403;28;20041;-55
2021/11/19 05:31:52;;;;;;;44.65;19.95;;;;;;;6.51;100.00;101853.47;5021475;28;20045;-55
2021/11/19 05:34:19;;;;;;;41.28;19.05;;;;;;;6.55;100.00;101855.22;5006734;28;20180;-54
2021/11/19 05:36:46;;;;;;;45.67;19.88;;;;;;;6.58;100.00;101857.81;5009395;28;20049;-52
2021/11/19 05:39:13;;;;;;;39.10;19.08;;;;;;;6.60;100.00;101863.09;5014540;28;20054;-53
2021/11/19 05:41:39;;;;;;;42.47;19.17;;;;;;;6.60;100.00;101869.22;5013642;28;20045;-52
2021/11/19 05:44:06;;;;;;;45.45;19.20;;;;;;;6.60;100.00;101865.72;5009385;28;20631;-55
2021/11/19 05:46:40;;;;;;;44.88;21.05;;;;;;;6.58;100.00;101871.00;5024125;28;20048;-55
2021/11/19 05:49:09;;;;;;;43.00;19.83;;;;;;;6.59;100.00;101863.97;5009165;28;20148;-55
2021/11/19 05:51:39;;;;;;;41.97;19.95;;;;;;;6.56;100.00;101872.75;5010198;28;20045;-54
2021/11/19 05:54:08;;;;;;;48.40;20.83;;;;;;;6.57;100.00;101865.72;5011555;28;20042;-52
2021/11/19 05:56:35;;;;;;;47.85;20.73;;;;;;;6.54;100.00;101868.38;5013904;28;20045;-54
2021/11/19 05:59:06;;;;;;;44.78;20.48;;;;;;;6.54;100.00;101861.34;5010249;28;20103;-51
2021/11/19 06:01:33;;;;;;;43.42;20.88;;;;;;;6.55;100.00;101867.50;5007585;28;20075;-52
2021/11/19 06:03:59;;;;;;;47.97;21.30;;;;;;;6.53;100.00;101867.50;5003544;28;20080;-53
2021/11/19 06:06:26;;;;;;;41.00;20.55;;;;;;;6.53;100.00;101870.13;5011574;28;20619;-53
2021/11/19 06:08:52;;;;;;;48.40;20.55;;;;;;;6.55;100.00;101876.25;5009322;28;20053;-53
2021/11/19 06:11:25;;;;;;;43.05;20.10;;;;;;;6.55;100.00;101885.91;5014954;28;20415;-54
2021/11/19 06:14:20;;;;;;;39.42;20.90;;;;;;;6.58;100.00;101884.16;5003777;28;20140;-55
2021/11/19 06:16:57;;;;;;;42.78;20.95;;;;;;;6.60;100.00;101889.41;5009490;28;20045;-53
2021/11/19 06:19:29;;;;;;;45.78;20.70;;;;;;;6.60;100.00;101890.28;5014805;28;20097;-52
2021/11/19 06:22:03;;;;;;;47.28;20.80;;;;;;;6.63;100.00;101895.50;5014625;28;20069;-55
2021/11/19 06:24:35;;;;;;;44.95;21.40;;;;;;;6.65;100.00;101904.25;5004307;28;20416;-53
2021/11/19 06:27:02;;;;;;;45.22;20.40;;;;;;;6.69;100.00;101906.00;5016046;28;20046;-52
2021/11/19 06:29:29;;;;;;;43.72;20.70;;;;;;;6.67;100.00;101902.50;5010626;28;20042;-53
2021/11/19 06:31:58;;;;;;;48.03;21.95;;;;;;;6.62;100.00;101906.91;5012044;28;20057;-54
2021/11/19 06:34:27;;;;;;;50.38;23.42;;;;;;;6.58;100.00;101901.69;5007309;28;20059;-51
2021/11/19 06:36:55;;;;;;;54.33;23.73;;;;;;;6.58;100.00;101907.84;5011038;28;20049;-54
2021/11/19 06:39:31;;;;;;;50.33;23.40;;;;;;;6.55;100.00;101889.44;5015739;28;20045;-54
2021/11/19 06:41:58;;;;;;;48.17;23.50;;;;;;;6.55;100.00;101899.94;5014299;28;20056;-53
2021/11/19 06:44:25;;;;;;;51.58;23.55;;;;;;;6.56;100.00;101908.72;5008028;28;20049;-52
2021/11/19 06:46:52;;;;;;;54.05;24.55;;;;;;;6.54;100.00;101916.63;5012344;28;20159;-52
2021/11/19 06:49:19;;;;;;;55.75;25.50;;;;;;;6.55;100.00;101923.63;5016788;28;20104;-53
2021/11/19 06:51:46;;;;;;;52.33;24.55;;;;;;;6.54;100.00;101915.75;5018274;28;20715;-53
2021/11/19 06:54:12;;;;;;;53.55;25.23;;;;;;;6.52;100.00;101917.50;5009457;28;20056;-55
2021/11/19 06:56:39;;;;;;;50.80;23.90;;;;;;;6.53;100.00;101922.78;5009394;28;20131;-52
2021/11/19 06:59:06;;;;;;;57.55;24.60;;;;;;;6.55;100.00;101923.63;5023011;28;20044;-52
2021/11/19 07:01:33;;;;;;;47.75;23.85;;;;;;;6.56;100.00;101920.13;5033087;28;20045;-54
2021/11/19 07:04:00;;;;;;;62.85;26.92;;;;;;;6.61;100.00;101936.75;5025848;28;20085;-52
2021/11/19 07:06:26;;;;;;;54.30;25.42;;;;;;;6.59;100.00;101933.28;5008503;28;20057;-52
2021/11/19 07:08:53;;;;;;;64.22;27.33;;;;;;;6.58;100.00;101928.88;5019975;28;20059;-54
2021/11/19 07:11:22;;;;;;;62.20;26.70;;;;;;;6.55;100.00;101939.44;5030845;28;20072;-52
2021/11/19 07:13:50;;;;;;;56.42;25.50;;;;;;;6.59;100.00;101925.38;5025137;28;20155;-54
2021/11/19 07:16:21;;;;;;;55.73;26.73;;;;;;;6.65;100.00;101927.94;5023084;28;20052;-50
2021/11/19 07:18:48;;;;;;;62.90;26.88;;;;;;;6.74;100.00;101928.78;5026038;28;20136;-52
2021/11/19 07:21:14;;;;;;;57.13;27.10;;;;;;;6.73;100.00;101925.28;5023946;28;20045;-53
2021/11/19 07:23:42;;;;;;;64.78;27.45;;;;;;;6.67;100.00;101926.19;5032475;28;20060;-51
2021/11/19 07:26:09;;;;;;;64.45;27.77;;;;;;;6.61;100.00;101928.84;5018281;28;20152;-52
2021/11/19 07:28:36;;;;;;;58.20;26.92;;;;;;;6.61;100.00;101923.56;5021875;28;20049;-53
2021/11/19 07:31:05;;;;;;;58.85;26.40;;;;;;;6.57;100.00;101923.63;5020274;28;20045;-53
2021/11/19 07:33:32;;;;;;;55.25;25.63;;;;;;;6.61;100.00;101928.00;5021502;28;20049;-54
2021/11/19 07:36:00;;;;;;;54.60;25.55;;;;;;;6.67;100.00;101933.22;5022944;28;20041;-52
2021/11/19 07:38:28;;;;;;;56.63;25.95;;;;;;;6.69;100.00;101931.44;5022349;28;21055;-58
2021/11/19 07:40:54;;;;;;;57.60;25.38;;;;;;;6.67;100.00;101928.81;5020295;28;20397;-51
2021/11/19 07:43:22;;;;;;;60.13;25.38;;;;;;;6.68;100.00;101935.84;5017892;28;20060;-51
2021/11/19 07:45:49;;;;;;;58.28;25.90;;;;;;;6.68;100.00;101940.22;5017518;28;20045;-51
2021/11/19 07:48:19;;;;;;;54.60;25.55;;;;;;;6.69;100.00;101931.44;5025410;28;20073;-52
2021/11/19 07:50:49;;;;;;;58.88;25.83;;;;;;;6.77;100.00;101936.69;5034647;28;20049;-52
2021/11/19 07:53:17;;;;;;;53.33;25.75;;;;;;;6.82;100.00;101940.13;5025235;28;20053;-52
2021/11/19 07:55:45;;;;;;;55.95;25.67;;;;;;;6.82;100.00;101943.63;5025474;28;20051;-52
2021/11/19 07:58:12;;;;;;;61.42;26.05;;;;;;;6.85;100.00;101937.47;5024034;28;20060;-55
2021/11/19 08:00:41;;;;;;;52.40;24.40;;;;;;;6.83;100.00;101934.84;5032964;28;20048;-53
2021/11/19 08:03:08;;;;;;;60.95;26.05;;;;;;;6.81;100.00;101941.00;5028856;28;20052;-54
2021/11/19 08:05:34;;;;;;;54.05;24.83;;;;;;;6.68;100.00;101930.56;5028701;28;20037;-54
2021/11/19 08:08:01;;;;;;;54.05;23.92;;;;;;;6.81;100.00;101951.53;5038619;28;20094;-53
2021/11/19 08:10:28;;;;;;;54.75;24.52;;;;;;;6.82;100.00;101945.41;5025739;28;20525;-51
2021/11/19 08:12:54;;;;;;;50.80;25.45;;;;;;;6.82;100.00;101942.75;5028653;28;20052;-50
2021/11/19 08:15:23;;;;;;;59.63;26.15;;;;;;;6.83;100.00;101955.03;5028393;28;20115;-53
2021/11/19 08:17:52;;;;;;;56.72;25.45;;;;;;;6.83;100.00;101960.31;5009623;28;20041;-52
2021/11/19 08:20:25;;;;;;;57.00;24.45;;;;;;;6.84;100.00;101952.41;5032866;28;20056;-54
2021/11/19 08:22:54;;;;;;;54.33;25.73;;;;;;;6.88;100.00;101958.53;5029797;28;20557;-51
2021/11/19 08:25:22;;;;;;;60.38;26.13;;;;;;;6.83;100.00;101955.03;5026729;28;20045;-53
2021/11/19 08:27:53;;;;;;;49.22;25.15;;;;;;;6.84;100.00;101952.41;5038388;28;20045;-53
2021/11/19 08:30:49;;;;;;;51.78;25.40;;;;;;;6.82;100.00;101956.81;5028760;28;20047;-53
2021/11/19 08:33:16;;;;;;;57.83;26.73;;;;;;;6.82;100.00;101955.94;5036155;28;20577;-53
2021/11/19 08:35:44;;;;;;;57.75;26.50;;;;;;;6.77;100.00;101953.31;5028435;28;20056;-54
2021/11/19 08:38:20;;;;;;;51.75;24.95;;;;;;;6.82;100.00;101958.56;5031790;28;20124;-54
2021/11/19 08:40:48;;;;;;;60.65;26.55;;;;;;;6.78;100.00;101955.06;5040266;28;20056;-52
2021/11/19 08:43:23;;;;;;;57.30;25.08;;;;;;;6.81;100.00;101948.91;5029539;28;20061;-54
2021/11/19 08:45:52;;;;;;;57.35;26.67;;;;;;;6.80;100.00;101950.66;5027895;28;20042;-52
2021/11/19 08:48:21;;;;;;;62.17;27.85;;;;;;;6.82;100.00;101956.81;5026165;28;20136;-52
2021/11/19 08:50:48;;;;;;;56.47;27.60;;;;;;;6.86;100.00;101955.03;5033373;28;20037;-52
2021/11/19 08:53:16;;;;;;;59.35;26.48;;;;;;;6.86;100.00;101955.03;5042355;28;20049;-52
2021/11/19 08:55:49;;;;;;;56.88;26.10;;;;;;;6.86;100.00;101955.03;5028109;28;20542;-53
2021/11/19 08:58:18;;;;;;;58.38;25.42;;;;;;;6.85;100.00;101948.88;5024485;28;20673;-52
2021/11/19 09:00:46;;;;;;;54.33;25.65;;;;;;;6.82;100.00;101953.28;5027568;28;20600;-51
2021/11/19 09:03:13;;;;;;;56.67;25.27;;;;;;;6.82;100.00;101950.66;5036541;28;20059;-53
2021/11/19 09:05:43;;;;;;;53.05;24.77;;;;;;;6.83;100.00;101950.66;5025219;28;20419;-51
2021/11/19 09:08:13;;;;;;;48.75;24.65;;;;;;;6.91;100.00;101947.97;5036904;28;20056;-53
2021/11/19 09:10:40;;;;;;;50.45;23.25;;;;;;;6.88;100.00;101942.72;5038419;28;20045;-53
2021/11/19 09:13:07;;;;;;;45.63;23.50;;;;;;;6.93;100.00;101954.09;5038317;28;20134;-52
2021/11/19 09:15:36;;;;;;;49.35;24.80;;;;;;;6.92;100.00;101950.59;5025427;28;20586;-53
2021/11/19 09:18:46;;;;;;;53.60;25.08;;;;;;;6.92;100.00;101949.72;5035425;28;20440;-52
2021/11/19 09:21:30;;;;;;;53.67;25.83;;;;;;;6.92;100.00;101939.19;5031512;28;20040;-52
2021/11/19 09:23:58;;;;;;;49.38;24.45;;;;;;;7.00;100.00;101953.16;5037250;28;20475;-53
2021/11/19 09:26:58;;;;;;;51.90;26.67;;;;;;;6.99;100.00;101952.28;5023610;28;20041;-53
2021/11/19 09:29:35;;;;;;;60.03;30.42;;;;;;;6.96;100.00;101952.31;5027086;28;20521;-54
2021/11/19 09:32:03;;;;;;;59.58;29.13;;;;;;;6.95;100.00;101950.56;5024145;28;20053;-51
2021/11/19 09:34:31;;;;;;;58.22;28.55;;;;;;;6.93;100.00;101951.44;5009416;28;20542;-53
2021/11/19 09:36:58;;;;;;;58.63;28.83;;;;;;;6.89;100.00;101955.88;5023273;28;20057;-52
2021/11/19 09:39:28;;;;;;;57.22;28.13;;;;;;;6.77;100.00;101934.03;5036342;28;20060;-53
2021/11/19 09:42:05;;;;;;;61.25;28.80;;;;;;;6.89;100.00;101958.53;5023939;28;20049;-50
2021/11/19 09:44:37;;;;;;;61.50;28.90;;;;;;;6.89;100.00;101962.91;5024440;28;20056;-52
2021/11/19 09:47:31;;;;;;;61.67;28.23;;;;;;;6.90;100.00;101962.03;5018969;28;20056;-52
2021/11/19 09:50:23;;;;;;;57.22;28.30;;;;;;;6.89;100.00;101961.16;5032706;28;20049;-52
2021/11/19 09:53:10;;;;;;;64.07;29.40;;;;;;;6.91;100.00;101959.38;5035450;28;20049;-52
2021/11/19 09:55:43;;;;;;;63.97;30.05;;;;;;;6.91;100.00;101955.88;5025659;28;20045;-50
2021/11/19 09:58:21;;;;;;;63.38;29.30;;;;;;;6.94;100.00;101956.72;5024985;28;20084;-52
2021/11/19 10:01:23;;;;;;;60.22;28.45;;;;;;;7.04;100.00;101949.63;5031164;28;20045;-52
2021/11/19 10:03:49;;;;;;;64.82;29.85;;;;;;;7.03;100.00;101959.28;4983831;28;20103;-54
2021/11/19 10:06:53;;;;;;;62.90;28.33;;;;;;;7.02;100.00;101947.00;5026333;28;20046;-50
2021/11/19 10:09:42;;;;;;;62.28;30.17;;;;;;;7.00;100.00;101945.25;5031531;28;20037;-57
2021/11/19 10:12:14;;;;;;;65.30;29.77;;;;;;;7.05;100.00;101946.13;5039365;28;20422;-53
2021/11/19 10:14:55;;;;;;;61.97;29.63;;;;;;;7.09;100.00;101934.63;5038499;28;20045;-54
2021/11/19 10:17:33;;;;;;;68.03;30.67;;;;;;;7.08;100.00;101940.84;5032309;28;20052;-53
2021/11/19 10:20:07;;;;;;;68.95;34.67;;;;;;;7.09;100.00;101939.91;5037864;28;20507;-52
2021/11/19 10:22:44;;;;;;;68.03;31.35;;;;;;;7.10;100.00;101938.16;5035314;28;20068;-52
2021/11/19 10:25:16;;;;;;;62.25;28.88;;;;;;;7.14;100.00;101938.13;5036862;28;20140;-52
2021/11/19 10:27:50;;;;;;;69.97;30.42;;;;;;;7.20;100.00;101938.09;5035994;28;20156;-52
2021/11/19 10:30:52;;;;;;;59.95;28.20;;;;;;;7.28;100.00;101944.16;5045227;28;20044;-51
2021/11/19 10:33:30;;;;;;;61.95;29.10;;;;;;;7.27;100.00;101944.16;4962454;28;20049;-51
2021/11/19 10:36:18;;;;;;;62.13;29.67;;;;;;;7.28;100.00;101938.88;5025172;28;20045;-51
2021/11/19 10:39:33;;;;;;;64.20;29.05;;;;;;;7.33;100.00;101936.22;5043123;28;20046;-51
2021/11/19 10:42:22;;;;;;;63.47;29.42;;;;;;;7.33;100.00;101937.09;4976424;28;20043;-53
2021/11/19 10:44:49;;;;;;;61.83;28.23;;;;;;;7.37;100.00;101930.91;4975483;28;20043;-51
2021/11/19 10:47:41;;;;;;;54.60;28.05;;;;;;;7.42;100.00;101932.59;5008429;28;20041;-54
2021/11/19 10:50:45;;;;;;;57.55;26.60;;;;;;;7.47;100.00;101934.31;4998626;28;20067;-53
2021/11/19 10:53:43;;;;;;;54.10;27.40;;;;;;;7.54;100.00;101936.00;5038255;28;20068;-55
2021/11/19 10:56:58;;;;;;;55.35;27.30;;;;;;;7.64;100.00;101935.03;5031618;28;20050;-52
2021/11/19 10:59:38;;;;;;;48.50;24.95;;;;;;;7.72;100.00;101937.56;4967000;28;20054;-53
2021/11/19 11:02:08;;;;;;;52.60;25.05;;;;;;;7.73;100.00;101934.03;5033831;28;20543;-53
2021/11/19 11:04:53;;;;;;;50.90;25.38;;;;;;;7.72;100.00;101927.00;5031139;28;20411;-52
2021/11/19 11:07:33;;;;;;;54.30;25.55;;;;;;;7.77;100.00;101937.53;5028074;28;20065;-53
2021/11/19 11:10:27;;;;;;;58.25;26.35;;;;;;;7.80;100.00;101927.81;5039605;28;20049;-52
2021/11/19 11:12:54;;;;;;;48.75;23.77;;;;;;;7.78;100.00;101924.31;5030938;28;20044;-51
2021/11/19 11:15:29;;;;;;;49.72;24.77;;;;;;;7.82;100.00;101918.13;5031377;28;20048;-51
2021/11/19 11:18:11;;;;;;;50.97;25.02;;;;;;;7.88;100.00;101909.25;5038577;28;20048;-56
2021/11/19 11:20:42;;;;;;;53.25;25.48;;;;;;;7.91;100.00;101896.03;5029896;28;20511;-50
2021/11/19 11:23:34;;;;;;;48.70;25.67;;;;;;;7.97;100.00;101894.22;5037501;28;20384;-53
2021/11/19 11:26:12;;;;;;;45.70;23.70;;;;;;;8.02;100.00;101892.41;5035350;28;20167;-51
2021/11/19 11:28:58;;;;;;;46.22;23.52;;;;;;;8.00;100.00;101878.34;5031936;28;20653;-52
2021/11/19 11:31:50;;;;;;;43.80;22.20;;;;;;;8.05;100.00;101880.91;5040638;28;20075;-53
2021/11/19 11:34:23;;;;;;;42.22;20.92;;;;;;;8.09;100.00;101886.13;5032722;28;20051;-54
2021/11/19 11:37:08;;;;;;;35.83;20.27;;;;;;;8.13;100.00;101883.47;5025484;28;20073;-52